Terminal Aerodrome Forecast
Issued by NWS

Home | Current Version | Previous Version | Text Only | Print | Product List | Glossary On
Versions: 1 2 3 4 5 6 7 8 9 10 11 12 13 14 15 16 17 18 19 20 21 22 23 24 25 26 27 28
000
FTUS45 KSLC 291120
TAFOGD
TAF
KOGD 291120Z 2912/3012 17010KT P6SM VCSH SCT070 BKN100
      TEMPO 2912/2914 -SHRA SCT060 BKN080
     FM291400 19006KT P6SM VCSH SCT060 BKN080
     FM291900 30010KT P6SM VCTS BKN080CB OVC100
     FM300300 03006KT P6SM VCSH SCT080 BKN100
     FM300900 15005KT P6SM VCSH SCT080 BKN100=

USA.gov is the U.S. government's official web portal to all federal, state and local government web resources and services.